Startpagina
METAR-TAF:

METAR-TAF

Vliegvelden :

Seoel-Incheon, Zuid-Korea

Incheon International Airport

breedte: 37-28N, lengte: 126-27E, hoogte: 7 m

Actueel weer

Dit bericht is 16 minuten geleden gemaakt, om 13:30 UTC
Wind 5 kt uit het zuidzuidwesten, variërend tussen het zuiden en het westen
Temperatuur 25°C
Vochtigheid 79%
Druk 1008 hPa
Zicht 10 km of meer
geen wolken onder 1500 m en geen cumulonimbus

METAR: RKSI 211330Z 21005KT 180V260 CAVOK 25/21 Q1008 NOSIG

Tijdstip: 22:46 (13:46 UTC)

Verwachting

Dit bericht is 2 uur en het 46 minuten geleden gemaakt, om 11:00 UTC
Verwachting geldig van 21 om 12 UTC tot 22 om 18 UTC
Wind 6 kt uit het zuiden
Zicht: 7000 m
Weinig wolken op 1000 ft
Verspreide wolken op 3000 ft
Gebroken wolken op 15000 ft
Wijzigt naar
van 22 om 04 UTC tot 22 om 05 UTC
Wind 7 kt uit het westen
Wijzigt naar
van 22 om 12 UTC tot 22 om 13 UTC
Wind 6 kt uit het zuiden

TAF: RKSI 211100Z 2112/2218 18006KT 7000 FEW010 SCT030 BKN150 TN24/2120Z TX29/2205Z BECMG 2204/2205 28007KT NSC BECMG 2212/2213 19006KT

Waarnemingen en weersverwachtingen van meer dan 4000 vliegvelden (METAR en TAF).

De beschikbare stations zijn de gele en rode punten op de kaart.

Ga met uw muis naar het station om de naam te zien.

Klik dan om waarnemingen en weersverwachtingen te zien.

kaart wijzigen: klik op de groene knoppen met een zwart kruis om in te zoomen, op de groene knop met een streepje om uit te zoomen of op de groene pijlen voor aangrenzende kaarten.


METAR-TAF: